Terminal Aerodrome Forecast
Issued by NWS Jackson, MS

Home | Current Version | Previous Version | Text Only | Print | Product List | Glossary On
Versions: 1 2 3 4 5 6 7 8 9 10 11 12 13 14
362
FTUS44 KJAN 031125
TAFGLH
TAF
KGLH 031125Z 0312/0412 07004KT 6SM -RA SCT035 OVC090
     FM031700 07010KT 4SM -RA BR OVC015
     FM032000 07013KT 4SM -RA BR OVC007=

USA.gov is the U.S. government's official web portal to all federal, state and local government web resources and services.